Terminal Aerodrome Forecast
Issued by NWS La Crosse, WI

Home | Current Version | Previous Version | Text Only | Print | Product List | Glossary On
Versions: 1 2 3 4 5 6 7 8 9 10 11 12 13 14 15 16 17 18 19
000
FTUS43 KARX 261130
TAFLSE
TAF
KLSE 261130Z 2612/2712 25004KT 4SM -SHRA BR SCT009 OVC020
      TEMPO 2612/2613 BKN009
     FM261700 28010KT P6SM VCSH OVC020
     FM262000 29012KT P6SM BKN020
     FM262300 29010KT P6SM BKN050=

USA.gov is the U.S. government's official web portal to all federal, state and local government web resources and services.